createdAt,value
2019-06-15T00:01:58.025Z,60.70
2019-06-15T00:04:26.484Z,60.60
2019-06-15T00:06:54.920Z,61.10
2019-06-15T00:09:23.385Z,61.10
2019-06-15T00:11:51.876Z,61.30
2019-06-15T00:14:20.306Z,61.30
2019-06-15T00:16:48.778Z,61.30
2019-06-15T00:19:17.278Z,61.10
2019-06-15T00:21:45.748Z,61.60
2019-06-15T00:24:14.168Z,61.60
2019-06-15T00:26:42.685Z,61.30
2019-06-15T00:29:11.347Z,61.20
2019-06-15T00:31:39.802Z,61.20
2019-06-15T00:34:08.436Z,61.40
2019-06-15T00:36:36.868Z,61.20
2019-06-15T00:39:06.933Z,61.00
2019-06-15T00:41:35.789Z,61.00
2019-06-15T00:44:04.700Z,61.00
2019-06-15T00:46:33.129Z,61.10
2019-06-15T00:49:01.596Z,61.30
2019-06-15T00:51:30.028Z,61.10
2019-06-15T00:53:58.677Z,61.80
2019-06-15T00:56:27.214Z,61.30
2019-06-15T00:58:55.703Z,61.10
2019-06-15T01:01:24.227Z,61.50
2019-06-15T01:03:54.520Z,61.20
2019-06-15T01:06:23.067Z,61.10
2019-06-15T01:08:51.507Z,61.00
2019-06-15T01:11:20.001Z,61.00
2019-06-15T01:13:48.536Z,61.00
2019-06-15T01:16:17.073Z,61.00
2019-06-15T01:18:45.524Z,61.40
2019-06-15T01:21:14.023Z,62.10
2019-06-15T01:23:42.552Z,61.50
2019-06-15T01:26:10.981Z,61.50
2019-06-15T01:28:39.505Z,61.20
2019-06-15T01:31:07.986Z,61.10
2019-06-15T01:33:36.433Z,61.00
2019-06-15T01:36:05.622Z,61.10
2019-06-15T01:38:34.057Z,61.00
2019-06-15T01:41:02.517Z,60.90
2019-06-15T01:43:30.960Z,60.80
2019-06-15T01:45:59.422Z,61.00
2019-06-15T01:48:27.853Z,60.90
2019-06-15T01:50:56.315Z,61.00
2019-06-15T01:53:24.750Z,61.00
2019-06-15T01:55:53.209Z,61.00
2019-06-15T01:58:21.651Z,61.10
2019-06-15T02:00:50.092Z,61.00
2019-06-15T02:03:18.535Z,61.10
2019-06-15T02:05:46.968Z,61.00
2019-06-15T02:08:15.411Z,61.10
2019-06-15T02:10:43.916Z,61.10
2019-06-15T02:13:12.372Z,61.20
2019-06-15T02:15:40.813Z,61.20
2019-06-15T02:18:09.264Z,61.10
2019-06-15T02:20:37.733Z,61.20
2019-06-15T02:23:06.254Z,61.30
2019-06-15T02:25:36.330Z,61.20
2019-06-15T02:28:05.178Z,61.20
2019-06-15T02:30:34.366Z,61.20
2019-06-15T02:33:03.426Z,61.20
2019-06-15T02:35:32.101Z,61.30
2019-06-15T02:38:00.572Z,61.20
2019-06-15T02:40:29.097Z,61.30
2019-06-15T02:42:57.705Z,61.30
2019-06-15T02:45:26.284Z,61.30
2019-06-15T02:47:54.749Z,61.40
2019-06-15T02:50:23.375Z,61.50
2019-06-15T02:52:51.911Z,61.50
2019-06-15T02:55:20.685Z,61.50
2019-06-15T02:57:49.137Z,61.70
2019-06-15T03:00:29.748Z,61.60
2019-06-15T03:02:58.315Z,61.50
2019-06-15T03:05:26.815Z,61.50
2019-06-15T03:07:55.335Z,61.60
2019-06-15T03:10:23.861Z,61.60
2019-06-15T03:12:52.552Z,61.60
2019-06-15T03:15:21.251Z,61.60
2019-06-15T03:17:49.750Z,63.00
2019-06-15T03:20:18.337Z,62.10
2019-06-15T03:22:46.779Z,62.00
2019-06-15T03:25:15.353Z,61.70
2019-06-15T03:27:43.897Z,62.10
2019-06-15T03:30:12.479Z,62.70
2019-06-15T03:32:40.940Z,62.20
2019-06-15T03:35:10.717Z,62.30
2019-06-15T03:37:39.208Z,62.70
2019-06-15T03:40:07.908Z,63.20
2019-06-15T03:42:36.349Z,63.00
2019-06-15T03:45:09.687Z,63.60
2019-06-15T03:47:38.210Z,63.40
2019-06-15T03:50:07.109Z,64.50
2019-06-15T03:52:35.617Z,63.60
2019-06-15T03:55:04.907Z,64.70
2019-06-15T03:57:33.335Z,64.50
2019-06-15T04:00:01.873Z,64.20
2019-06-15T04:02:30.368Z,65.20
2019-06-15T04:04:58.831Z,67.50
2019-06-15T04:07:27.289Z,65.90
2019-06-15T04:09:55.750Z,65.50
2019-06-15T04:12:24.179Z,65.00
2019-06-15T04:14:52.656Z,65.80
2019-06-15T04:17:21.100Z,64.30
2019-06-15T04:19:49.581Z,64.00
2019-06-15T04:22:18.051Z,65.10
2019-06-15T04:24:46.556Z,64.70
2019-06-15T04:27:14.987Z,64.10
2019-06-15T04:29:43.452Z,64.40
2019-06-15T04:32:11.872Z,63.80
2019-06-15T04:34:40.323Z,64.40
2019-06-15T04:37:08.780Z,64.00
2019-06-15T04:39:37.247Z,63.20
2019-06-15T04:42:05.698Z,62.90
2019-06-15T04:44:34.140Z,62.70
2019-06-15T04:47:02.644Z,63.30
2019-06-15T04:49:31.105Z,64.50
2019-06-15T04:51:59.590Z,63.90
2019-06-15T04:54:28.013Z,62.90
2019-06-15T04:56:56.484Z,63.00
2019-06-15T04:59:24.931Z,63.40
2019-06-15T05:01:53.374Z,65.50
2019-06-15T05:04:21.900Z,65.20
2019-06-15T05:06:50.337Z,67.30
2019-06-15T05:09:20.339Z,66.20
2019-06-15T05:11:48.833Z,65.90
2019-06-15T05:14:17.296Z,65.40
2019-06-15T05:16:45.732Z,64.00
2019-06-15T05:19:14.176Z,66.80
2019-06-15T05:21:42.782Z,66.50
2019-06-15T05:24:11.224Z,64.10
2019-06-15T05:26:39.657Z,63.80
2019-06-15T05:29:08.193Z,63.50
2019-06-15T05:31:36.653Z,63.70
2019-06-15T05:34:05.171Z,63.40
2019-06-15T05:36:33.623Z,63.50
2019-06-15T05:39:02.080Z,63.50
2019-06-15T05:41:30.543Z,63.70
2019-06-15T05:43:58.968Z,63.00
2019-06-15T05:46:27.417Z,63.20
2019-06-15T05:48:55.897Z,63.80
2019-06-15T05:51:24.434Z,63.60
2019-06-15T05:53:52.847Z,63.90
2019-06-15T05:56:21.344Z,63.00
2019-06-15T05:58:49.825Z,64.10
2019-06-15T06:01:18.291Z,63.80
2019-06-15T06:03:46.801Z,63.70
2019-06-15T06:06:15.266Z,63.70
2019-06-15T06:08:43.782Z,63.10
2019-06-15T06:11:12.253Z,63.00
2019-06-15T06:13:40.684Z,63.90
2019-06-15T06:16:09.123Z,64.20
2019-06-15T06:18:37.597Z,63.40
2019-06-15T06:21:06.033Z,64.40
2019-06-15T06:23:34.528Z,64.00
2019-06-15T06:26:03.008Z,65.60
2019-06-15T06:28:31.477Z,65.70
2019-06-15T06:30:59.903Z,64.90
2019-06-15T06:33:28.381Z,65.20
2019-06-15T06:35:56.854Z,65.50
2019-06-15T06:38:25.367Z,65.40
2019-06-15T06:40:53.828Z,64.80
2019-06-15T06:43:22.275Z,65.10
2019-06-15T06:45:50.704Z,65.40
2019-06-15T06:48:19.182Z,65.30
2019-06-15T06:50:47.651Z,66.80
2019-06-15T06:53:16.116Z,65.40
2019-06-15T06:55:44.559Z,65.80
2019-06-15T06:58:13.083Z,65.00
2019-06-15T07:00:41.510Z,65.50
2019-06-15T07:03:09.978Z,66.20
2019-06-15T07:05:38.444Z,65.50
2019-06-15T07:08:06.969Z,64.50
2019-06-15T07:10:35.458Z,64.90
2019-06-15T07:13:03.966Z,64.90
2019-06-15T07:15:32.416Z,64.60
2019-06-15T07:18:00.876Z,65.70
2019-06-15T07:20:29.348Z,65.60
2019-06-15T07:22:57.818Z,65.00
2019-06-15T07:25:26.291Z,65.00
2019-06-15T07:28:07.633Z,64.50
2019-06-15T07:30:25.008Z,64.50
2019-06-15T07:32:53.461Z,64.70
2019-06-15T07:35:21.903Z,64.40
2019-06-15T07:37:50.364Z,64.40
2019-06-15T07:40:19.094Z,64.20
2019-06-15T07:42:47.568Z,64.00
2019-06-15T07:45:16.323Z,63.90
2019-06-15T07:47:44.926Z,63.80
2019-06-15T07:50:13.936Z,63.90
2019-06-15T07:52:42.393Z,63.20
2019-06-15T07:55:11.484Z,63.90
2019-06-15T07:57:39.940Z,64.00
2019-06-15T08:00:08.732Z,63.30
2019-06-15T08:02:37.277Z,64.60
2019-06-15T08:05:07.324Z,63.30
2019-06-15T08:07:36.031Z,64.30
2019-06-15T08:10:06.775Z,63.90
2019-06-15T08:12:35.428Z,64.20
2019-06-15T08:15:05.358Z,63.50
2019-06-15T08:17:33.817Z,63.60
2019-06-15T08:20:02.260Z,63.10
2019-06-15T08:22:30.716Z,63.30
2019-06-15T08:24:59.276Z,63.20
2019-06-15T08:27:27.719Z,63.00
2019-06-15T08:29:56.151Z,62.90
2019-06-15T08:32:24.633Z,63.20
2019-06-15T08:34:53.109Z,63.30
2019-06-15T08:37:21.641Z,63.50
2019-06-15T08:39:50.202Z,62.60
2019-06-15T08:42:18.717Z,62.50
2019-06-15T08:44:47.312Z,62.50
2019-06-15T08:47:15.771Z,62.30
2019-06-15T08:49:46.025Z,62.30
2019-06-15T08:52:14.613Z,62.60
2019-06-15T08:54:43.064Z,63.30
2019-06-15T08:57:11.578Z,62.80
2019-06-15T08:59:40.075Z,63.00
2019-06-15T09:02:08.529Z,62.80
2019-06-15T09:04:37.010Z,62.40
2019-06-15T09:07:05.580Z,62.20
2019-06-15T09:09:34.163Z,61.80
2019-06-15T09:12:02.706Z,61.90
2019-06-15T09:14:31.215Z,61.70
2019-06-15T09:16:59.737Z,61.30
2019-06-15T09:19:28.249Z,62.00
2019-06-15T09:21:56.758Z,62.00
2019-06-15T09:24:25.213Z,62.60
2019-06-15T09:26:53.823Z,62.00
2019-06-15T09:29:22.293Z,61.50
2019-06-15T09:31:50.781Z,61.60
2019-06-15T09:34:19.563Z,61.80
2019-06-15T09:36:48.082Z,61.60
2019-06-15T09:39:16.702Z,61.20
2019-06-15T09:42:04.693Z,61.00
2019-06-15T09:44:32.466Z,61.10
2019-06-15T09:47:01.076Z,60.60
2019-06-15T09:49:40.487Z,60.80
2019-06-15T09:52:09.011Z,60.90
2019-06-15T09:54:37.733Z,60.60
2019-06-15T09:57:06.954Z,60.30
2019-06-15T09:59:38.268Z,60.00
2019-06-15T10:02:05.918Z,60.60
2019-06-15T10:04:34.501Z,60.00
2019-06-15T10:07:02.954Z,60.30
2019-06-15T10:09:31.429Z,60.60
2019-06-15T10:11:59.905Z,60.00
2019-06-15T10:14:28.363Z,59.40
2019-06-15T10:16:56.809Z,59.20
2019-06-15T10:19:25.274Z,59.30
2019-06-15T10:21:53.739Z,59.40
2019-06-15T10:24:22.204Z,59.60
2019-06-15T10:26:50.662Z,59.70
2019-06-15T10:29:19.108Z,59.30
2019-06-15T10:31:47.568Z,58.80
2019-06-15T10:34:16.053Z,59.60
2019-06-15T10:36:44.499Z,59.60
2019-06-15T10:39:13.033Z,59.60
2019-06-15T10:41:41.475Z,59.00
2019-06-15T10:44:09.944Z,59.30
2019-06-15T10:46:38.414Z,58.40
2019-06-15T10:49:07.042Z,59.30
2019-06-15T10:51:35.648Z,59.40
2019-06-15T10:54:04.312Z,58.20
2019-06-15T10:56:32.797Z,58.60
2019-06-15T10:59:01.252Z,59.10
2019-06-15T11:01:29.836Z,59.50
2019-06-15T11:03:58.437Z,58.70
2019-06-15T11:06:26.911Z,59.50
2019-06-15T11:08:55.440Z,58.60
2019-06-15T11:11:24.149Z,59.50
2019-06-15T11:13:52.679Z,59.70
2019-06-15T11:16:21.238Z,59.50
2019-06-15T11:18:49.761Z,59.00
2019-06-15T11:21:19.089Z,59.60
2019-06-15T11:23:47.605Z,59.40
2019-06-15T11:26:16.123Z,59.50
2019-06-15T11:28:44.607Z,58.90
2019-06-15T11:31:13.167Z,58.80
2019-06-15T11:33:43.027Z,59.70
2019-06-15T11:36:11.602Z,59.20
2019-06-15T11:38:40.150Z,59.40
2019-06-15T11:41:08.693Z,59.20
2019-06-15T11:43:37.346Z,59.20
2019-06-15T11:46:05.890Z,59.10
2019-06-15T11:48:36.757Z,59.20
2019-06-15T11:51:05.409Z,59.10
2019-06-15T11:53:33.923Z,59.50
2019-06-15T11:56:02.489Z,59.60
2019-06-15T11:58:31.038Z,58.70
2019-06-15T12:00:59.779Z,59.50
2019-06-15T12:03:28.442Z,58.30
2019-06-15T12:05:56.930Z,59.00
2019-06-15T12:08:25.383Z,59.30
2019-06-15T12:10:53.937Z,59.30
2019-06-15T12:13:22.460Z,59.30
2019-06-15T12:15:51.064Z,59.30
2019-06-15T12:18:19.566Z,59.10
2019-06-15T12:20:48.102Z,58.60
2019-06-15T12:23:16.553Z,59.00
2019-06-15T12:25:45.106Z,58.20
2019-06-15T12:28:13.688Z,58.90
2019-06-15T12:30:47.249Z,59.00
2019-06-15T12:33:12.576Z,58.60
2019-06-15T12:35:41.250Z,59.10
2019-06-15T12:38:09.784Z,59.00
2019-06-15T12:40:38.389Z,59.00
2019-06-15T12:43:06.987Z,58.60
2019-06-15T12:45:35.438Z,58.20
2019-06-15T12:48:04.064Z,59.20
2019-06-15T12:50:32.570Z,58.20
2019-06-15T12:53:01.123Z,58.50
2019-06-15T12:55:30.028Z,59.10
2019-06-15T12:57:58.551Z,58.80
2019-06-15T13:00:30.073Z,59.00
2019-06-15T13:02:58.578Z,58.80
2019-06-15T13:05:27.207Z,58.50
2019-06-15T13:07:55.771Z,57.80
2019-06-15T13:10:24.373Z,58.70
2019-06-15T13:12:53.000Z,58.70
2019-06-15T13:15:21.587Z,58.70
2019-06-15T13:17:50.411Z,58.80
2019-06-15T13:20:19.511Z,59.00
2019-06-15T13:22:48.829Z,57.60
2019-06-15T13:25:17.391Z,58.60
2019-06-15T13:27:45.923Z,58.00
2019-06-15T13:30:17.460Z,58.50
2019-06-15T13:32:46.040Z,58.40
2019-06-15T13:35:14.536Z,58.10
2019-06-15T13:37:43.035Z,56.70
2019-06-15T13:40:11.647Z,57.20
2019-06-15T13:42:40.227Z,57.30
2019-06-15T13:45:09.381Z,58.10
2019-06-15T13:47:38.011Z,58.30
2019-06-15T13:50:07.702Z,58.10
2019-06-15T13:52:36.297Z,58.10
2019-06-15T13:55:05.745Z,56.50
2019-06-15T13:57:34.358Z,58.40
2019-06-15T14:00:04.405Z,57.60
2019-06-15T14:02:38.779Z,57.20
2019-06-15T14:05:07.543Z,57.00
2019-06-15T14:07:36.446Z,56.50
2019-06-15T14:10:06.445Z,56.80
2019-06-15T14:12:46.508Z,56.60
2019-06-15T14:15:17.524Z,58.10
2019-06-15T14:17:47.977Z,57.50
2019-06-15T14:21:13.960Z,57.30
2019-06-15T14:23:33.637Z,57.50
2019-06-15T14:26:02.139Z,57.80
2019-06-15T14:28:30.712Z,57.90
2019-06-15T14:30:59.287Z,57.00
2019-06-15T14:33:41.963Z,58.00
2019-06-15T14:36:11.815Z,57.70
2019-06-15T14:38:54.997Z,56.80
2019-06-15T14:41:21.522Z,56.60
2019-06-15T14:43:50.032Z,58.20
2019-06-15T14:55:39.565Z,56.70
2019-06-15T14:58:16.932Z,56.30
2019-06-15T15:01:19.957Z,55.30
2019-06-15T15:04:00.835Z,56.50
2019-06-15T15:06:37.066Z,56.30
2019-06-15T15:09:01.453Z,57.20
2019-06-15T15:11:29.899Z,55.30
2019-06-15T15:13:58.374Z,56.20
2019-06-15T15:16:26.904Z,55.50
2019-06-15T15:18:56.724Z,55.10
2019-06-15T15:21:26.518Z,56.90
2019-06-15T15:23:57.034Z,55.30
2019-06-15T15:26:26.514Z,56.50
2019-06-15T15:28:56.616Z,56.80
2019-06-15T15:31:27.223Z,57.00
2019-06-15T15:33:56.108Z,55.20
2019-06-15T15:36:26.301Z,55.40
2019-06-15T15:38:56.071Z,55.80
2019-06-15T15:41:26.584Z,55.60
2019-06-15T15:43:54.902Z,55.50
2019-06-15T15:46:23.471Z,55.30
2019-06-15T15:48:52.066Z,55.80
2019-06-15T15:51:20.643Z,54.30
2019-06-15T15:54:01.369Z,55.50
2019-06-15T15:56:40.264Z,55.30
2019-06-15T16:02:13.011Z,56.50
2019-06-15T16:04:47.604Z,56.70
2019-06-15T16:07:16.871Z,57.00
2019-06-15T16:09:45.374Z,56.60
2019-06-15T16:12:13.840Z,56.30
2019-06-15T16:14:42.459Z,54.50
2019-06-15T16:17:10.915Z,56.30
2019-06-15T16:19:39.359Z,55.40
2019-06-15T16:22:08.083Z,55.00
2019-06-15T16:24:37.471Z,56.40
2019-06-15T16:27:07.106Z,54.70
2019-06-15T16:29:37.279Z,55.20
2019-06-15T16:32:07.123Z,53.60
2019-06-15T16:34:36.083Z,55.30
2019-06-15T16:37:06.541Z,54.60
2019-06-15T16:39:36.141Z,55.90
2019-06-15T16:42:06.542Z,53.50
2019-06-15T16:44:36.564Z,53.70
2019-06-15T16:47:06.081Z,53.30
2019-06-15T16:49:36.252Z,54.10
2019-06-15T16:52:06.224Z,54.80
2019-06-15T16:54:36.110Z,53.70
2019-06-15T16:57:04.826Z,54.20
2019-06-15T16:59:36.397Z,51.90
2019-06-15T17:02:06.486Z,54.10
2019-06-15T17:04:36.401Z,54.40
2019-06-15T17:07:07.122Z,54.80
2019-06-15T17:09:37.012Z,54.60
2019-06-15T17:12:06.565Z,54.20
2019-06-15T17:14:36.482Z,54.60
2019-06-15T17:17:05.604Z,53.30
2019-06-15T17:19:36.229Z,53.80
2019-06-15T17:22:14.793Z,53.10
2019-06-15T17:24:36.828Z,54.20
2019-06-15T17:27:06.086Z,54.00
2019-06-15T17:29:34.942Z,54.40
2019-06-15T17:32:03.537Z,54.80
2019-06-15T17:34:32.103Z,54.30
2019-06-15T17:37:00.617Z,54.40
2019-06-15T17:39:31.265Z,54.20
2019-06-15T17:41:59.848Z,54.60
2019-06-15T17:44:28.370Z,54.90
2019-06-15T17:46:56.879Z,55.00
2019-06-15T17:49:27.097Z,55.30
2019-06-15T17:51:55.771Z,55.70
2019-06-15T17:54:24.303Z,54.90
2019-06-15T17:56:52.854Z,54.10
2019-06-15T17:59:22.348Z,54.70
2019-06-15T18:01:50.997Z,55.60
2019-06-15T18:04:19.541Z,55.30
2019-06-15T18:06:48.050Z,54.00
2019-06-15T18:09:17.165Z,53.50
2019-06-15T18:11:46.430Z,55.20
2019-06-15T18:14:17.478Z,55.60
2019-06-15T18:16:47.052Z,55.70
2019-06-15T18:19:17.068Z,56.00
2019-06-15T18:21:46.799Z,56.20
2019-06-15T18:24:16.270Z,56.40
2019-06-15T18:26:47.400Z,56.50
2019-06-15T18:29:17.846Z,55.70
2019-06-15T18:31:45.927Z,55.50
2019-06-15T18:34:16.730Z,56.20
2019-06-15T18:36:44.773Z,56.50
2019-06-15T18:39:16.648Z,56.50
2019-06-15T18:41:46.754Z,56.60
2019-06-15T18:44:17.593Z,56.60
2019-06-15T18:46:46.648Z,56.50
2019-06-15T18:49:15.980Z,56.50
2019-06-15T18:51:46.041Z,56.20
2019-06-15T18:54:15.994Z,56.40
2019-06-15T18:56:45.980Z,56.50
2019-06-15T18:59:16.801Z,56.60
2019-06-15T19:01:46.963Z,56.80
2019-06-15T19:04:27.021Z,57.10
2019-06-15T19:06:51.154Z,57.10
2019-06-15T19:09:19.745Z,56.50
2019-06-15T19:11:49.565Z,56.40
2019-06-15T19:14:20.804Z,56.70
2019-06-15T19:16:51.022Z,56.70
2019-06-15T19:19:19.813Z,56.80
2019-06-15T19:21:48.381Z,56.90
2019-06-15T19:24:16.918Z,57.10
2019-06-15T19:26:46.531Z,57.30
2019-06-15T19:29:17.124Z,57.30
2019-06-15T19:31:46.925Z,57.10
2019-06-15T19:34:16.714Z,56.60
2019-06-15T19:36:46.866Z,57.30
2019-06-15T19:39:16.983Z,57.40
2019-06-15T19:41:47.089Z,57.40
2019-06-15T19:44:17.217Z,57.50
2019-06-15T19:46:47.657Z,57.50
2019-06-15T19:49:17.133Z,57.50
2019-06-15T19:51:48.523Z,57.50
2019-06-15T19:54:17.108Z,57.50
2019-06-15T19:56:47.223Z,57.60
2019-06-15T19:59:17.120Z,57.60
2019-06-15T20:01:46.975Z,57.60
2019-06-15T20:04:18.342Z,57.60
2019-06-15T20:06:46.912Z,58.30
2019-06-15T20:09:16.925Z,57.70
2019-06-15T20:11:46.921Z,57.70
2019-06-15T20:14:17.207Z,57.10
2019-06-15T20:16:47.032Z,57.50
2019-06-15T20:19:17.513Z,57.70
2019-06-15T20:21:46.326Z,57.70
2019-06-15T20:24:16.214Z,57.80
2019-06-15T20:26:45.230Z,57.80
2019-06-15T20:29:13.905Z,57.80
2019-06-15T20:31:42.424Z,57.80
2019-06-15T20:34:10.923Z,57.90
2019-06-15T20:36:39.428Z,57.90
2019-06-15T20:39:08.672Z,57.70
2019-06-15T20:41:37.297Z,57.70
2019-06-15T20:44:05.824Z,57.50
2019-06-15T20:46:37.130Z,57.40
2019-06-15T20:49:06.561Z,57.40
2019-06-15T20:51:37.116Z,57.50
2019-06-15T20:54:06.960Z,57.90
2019-06-15T20:56:37.298Z,58.00
2019-06-15T20:59:06.442Z,57.90
2019-06-15T21:01:36.952Z,57.90
2019-06-15T21:04:07.389Z,57.80
2019-06-15T21:06:37.061Z,57.80
2019-06-15T21:09:07.570Z,57.90
2019-06-15T21:11:36.307Z,58.00
2019-06-15T21:14:05.265Z,57.80
2019-06-15T21:16:36.838Z,57.60
2019-06-15T21:19:06.527Z,57.80
2019-06-15T21:21:59.949Z,57.80
2019-06-15T21:27:00.095Z,57.90
2019-06-15T21:27:43.120Z,57.80
2019-06-15T21:29:28.585Z,58.00
2019-06-15T21:31:57.053Z,57.80
2019-06-15T21:34:26.520Z,57.90
2019-06-15T21:36:56.668Z,58.00
2019-06-15T21:39:26.608Z,58.10
2019-06-15T21:41:56.874Z,58.20
2019-06-15T21:44:26.529Z,58.20
2019-06-15T21:46:56.307Z,58.20
2019-06-15T21:49:26.395Z,58.20
2019-06-15T21:51:56.440Z,58.20
2019-06-15T21:54:26.759Z,59.00
2019-06-15T21:56:56.428Z,58.80
2019-06-15T21:59:26.134Z,58.80
2019-06-15T22:01:54.772Z,59.40
2019-06-15T22:04:23.232Z,59.30
2019-06-15T22:06:51.684Z,59.80
2019-06-15T22:09:21.093Z,59.80
2019-06-15T22:11:49.768Z,60.00
2019-06-15T22:14:18.277Z,59.80
2019-06-15T22:16:46.816Z,60.60
2019-06-15T22:19:16.921Z,60.00
2019-06-15T22:21:47.776Z,59.80
2019-06-15T22:24:16.289Z,60.10
2019-06-15T22:26:46.761Z,60.30
2019-06-15T22:29:16.760Z,61.60
2019-06-15T22:31:46.612Z,60.50
2019-06-15T22:34:16.277Z,60.40
2019-06-15T22:36:44.811Z,62.20
2019-06-15T22:39:13.246Z,60.90
2019-06-15T22:41:41.726Z,61.00
2019-06-15T22:44:10.200Z,62.20
2019-06-15T22:46:38.677Z,62.70
2019-06-15T22:49:07.225Z,61.60
2019-06-15T22:51:36.813Z,61.80
2019-06-15T22:54:05.488Z,63.70
2019-06-15T22:56:34.022Z,61.80
2019-06-15T22:59:02.473Z,62.30
2019-06-15T23:01:30.951Z,62.60
2019-06-15T23:03:59.395Z,63.60
2019-06-15T23:06:36.918Z,62.00
2019-06-15T23:08:58.092Z,61.90
2019-06-15T23:11:26.834Z,61.80
2019-06-15T23:13:57.447Z,62.00
2019-06-15T23:16:27.035Z,62.50
2019-06-15T23:19:07.647Z,62.90
2019-06-15T23:21:29.328Z,62.60
2019-06-15T23:23:57.854Z,62.90
2019-06-15T23:26:26.308Z,62.60
2019-06-15T23:28:56.377Z,62.00
2019-06-15T23:31:25.125Z,62.60
2019-06-15T23:33:55.909Z,62.30
2019-06-15T23:36:52.467Z,62.30
2019-06-15T23:39:07.935Z,62.20
2019-06-15T23:41:36.421Z,62.10
2019-06-15T23:44:04.953Z,63.10
2019-06-15T23:46:36.001Z,62.50
2019-06-15T23:49:03.736Z,62.20
2019-06-15T23:51:32.230Z,62.30
2019-06-15T23:54:00.712Z,62.60
2019-06-15T23:56:29.198Z,62.40
2019-06-15T23:58:57.634Z,63.90
